createdAt,value
2019-04-29T00:00:43.676Z,75.79
2019-04-29T00:05:44.967Z,75.65
2019-04-29T00:10:46.235Z,77.30
2019-04-29T00:15:47.481Z,77.41
2019-04-29T00:20:49.049Z,75.82
2019-04-29T00:25:51.587Z,74.59
2019-04-29T00:30:52.836Z,74.04
2019-04-29T00:35:54.101Z,73.82
2019-04-29T00:40:55.392Z,73.66
2019-04-29T00:45:56.686Z,73.56
2019-04-29T00:50:58.041Z,73.70
2019-04-29T00:55:59.490Z,73.41
2019-04-29T01:01:00.854Z,73.91
2019-04-29T01:06:02.232Z,73.87
2019-04-29T01:11:03.490Z,74.86
2019-04-29T01:16:04.829Z,75.72
2019-04-29T01:21:06.086Z,75.10
2019-04-29T01:26:07.315Z,75.04
2019-04-29T01:31:08.571Z,75.24
2019-04-29T01:36:09.808Z,75.36
2019-04-29T01:41:11.185Z,74.96
2019-04-29T01:46:13.297Z,74.46
2019-04-29T01:51:14.611Z,74.38
2019-04-29T01:56:15.897Z,74.25
2019-04-29T02:01:17.367Z,74.31
2019-04-29T02:06:18.623Z,74.34
2019-04-29T02:11:19.914Z,74.38
2019-04-29T02:16:21.411Z,74.89
2019-04-29T02:21:22.748Z,74.39
2019-04-29T02:26:23.993Z,74.77
2019-04-29T02:31:25.247Z,76.12
2019-04-29T02:36:29.915Z,76.38
2019-04-29T02:41:29.659Z,75.80
2019-04-29T02:46:30.901Z,75.27
2019-04-29T02:51:32.295Z,74.87
2019-04-29T02:56:33.522Z,75.26
2019-04-29T03:01:34.781Z,74.92
2019-04-29T03:06:36.196Z,74.92
2019-04-29T03:11:37.498Z,74.18
2019-04-29T03:16:38.851Z,74.54
2019-04-29T03:21:40.138Z,74.56
2019-04-29T03:26:41.374Z,74.10
2019-04-29T03:31:42.821Z,74.07
2019-04-29T03:36:44.160Z,74.64
2019-04-29T03:41:45.521Z,74.58
2019-04-29T03:46:46.885Z,74.12
2019-04-29T03:51:48.149Z,74.71
2019-04-29T03:56:49.493Z,75.08
2019-04-29T04:01:50.879Z,75.30
2019-04-29T04:06:52.173Z,75.89
2019-04-29T04:11:53.544Z,75.47
2019-04-29T04:16:54.791Z,75.81
2019-04-29T04:21:56.064Z,75.43
2019-04-29T04:26:57.329Z,75.65
2019-04-29T04:31:58.639Z,75.29
2019-04-29T04:37:00.533Z,75.51
2019-04-29T04:42:01.997Z,78.09
2019-04-29T04:47:03.257Z,77.57
2019-04-29T04:52:04.702Z,77.00
2019-04-29T04:57:06.203Z,77.15
2019-04-29T05:02:07.435Z,77.77
2019-04-29T05:07:08.948Z,77.35
2019-04-29T05:12:10.266Z,77.48
2019-04-29T05:17:11.559Z,77.85
2019-04-29T05:22:12.783Z,78.66
2019-04-29T05:27:14.145Z,80.06
2019-04-29T05:32:15.379Z,80.41
2019-04-29T05:37:16.871Z,80.39
2019-04-29T05:42:18.352Z,80.44
2019-04-29T05:47:19.717Z,80.79
2019-04-29T05:52:21.168Z,80.74
2019-04-29T05:57:25.389Z,80.82
2019-04-29T06:02:33.576Z,80.94
2019-04-29T06:07:29.158Z,81.29
2019-04-29T06:12:30.629Z,80.97
2019-04-29T06:17:32.059Z,80.54
2019-04-29T06:22:33.531Z,79.53
2019-04-29T06:27:34.775Z,77.61
2019-04-29T06:32:36.153Z,77.90
2019-04-29T06:37:37.485Z,76.81
2019-04-29T06:42:38.859Z,76.17
2019-04-29T06:47:40.345Z,77.18
2019-04-29T06:52:41.591Z,77.10
2019-04-29T06:57:43.033Z,77.14
2019-04-29T07:02:45.588Z,78.17
2019-04-29T07:07:47.471Z,77.91
2019-04-29T07:12:48.779Z,77.80
2019-04-29T07:17:50.009Z,78.95
2019-04-29T07:22:51.499Z,80.45
2019-04-29T07:27:52.848Z,78.09
2019-04-29T07:32:54.321Z,79.74
2019-04-29T07:37:55.955Z,79.44
2019-04-29T07:42:57.329Z,79.18
2019-04-29T07:48:04.259Z,76.52
2019-04-29T07:53:02.025Z,76.82
2019-04-29T07:58:03.407Z,76.41
2019-04-29T08:03:05.520Z,75.66
2019-04-29T08:08:06.765Z,74.03
2019-04-29T08:13:08.036Z,71.50
2019-04-29T08:18:11.394Z,68.21
2019-04-29T08:23:12.742Z,68.29
2019-04-29T08:28:14.199Z,68.87
2019-04-29T08:33:15.569Z,66.81
2019-04-29T08:38:17.080Z,66.94
2019-04-29T08:43:20.559Z,65.54
2019-04-29T08:48:21.809Z,64.29
2019-04-29T08:53:23.332Z,63.14
2019-04-29T08:58:24.731Z,62.40
2019-04-29T09:03:39.548Z,62.65
2019-04-29T09:08:33.000Z,60.62
2019-04-29T09:13:32.739Z,56.94
2019-04-29T09:18:34.431Z,54.89
2019-04-29T09:23:35.803Z,55.23
2019-04-29T09:28:37.054Z,51.19
2019-04-29T09:33:38.318Z,52.26
2019-04-29T09:38:39.740Z,51.74
2019-04-29T09:43:41.140Z,51.07
2019-04-29T09:48:42.508Z,53.35
2019-04-29T09:53:43.905Z,53.56
2019-04-29T09:58:45.516Z,51.19
2019-04-29T10:03:46.918Z,51.95
2019-04-29T10:08:48.412Z,49.52
2019-04-29T10:13:49.802Z,49.77
2019-04-29T10:18:51.288Z,50.76
2019-04-29T10:23:52.674Z,49.07
2019-04-29T10:28:54.202Z,51.62
2019-04-29T10:33:56.515Z,48.82
2019-04-29T10:38:58.281Z,46.19
2019-04-29T10:43:59.638Z,47.49
2019-04-29T10:49:03.572Z,47.88
2019-04-29T10:54:04.665Z,41.58
2019-04-29T10:59:09.091Z,44.40
2019-04-29T11:04:09.302Z,46.26
2019-04-29T11:09:14.502Z,41.92
2019-04-29T11:14:13.746Z,41.94
2019-04-29T11:19:14.997Z,42.08
2019-04-29T11:24:16.580Z,43.22
2019-04-29T11:29:22.233Z,43.38
2019-04-29T11:34:21.192Z,44.98
2019-04-29T11:39:22.678Z,46.28
2019-04-29T11:44:26.611Z,44.69
2019-04-29T11:49:27.416Z,42.95
2019-04-29T11:54:28.859Z,45.23
2019-04-29T11:59:30.667Z,44.30
2019-04-29T12:04:33.507Z,42.36
2019-04-29T12:09:35.268Z,41.90
2019-04-29T12:14:37.933Z,41.73
2019-04-29T12:19:40.068Z,41.02
2019-04-29T12:24:41.354Z,42.68
2019-04-29T12:29:42.634Z,42.77
2019-04-29T12:34:43.979Z,42.95
2019-04-29T12:39:45.497Z,42.12
2019-04-29T12:44:46.866Z,43.94
2019-04-29T12:49:48.295Z,42.22
2019-04-29T12:54:49.750Z,44.19
2019-04-29T12:59:54.269Z,42.25
2019-04-29T13:04:54.215Z,42.07
2019-04-29T13:09:55.393Z,41.89
2019-04-29T13:15:03.149Z,42.13
2019-04-29T13:20:11.643Z,40.91
2019-04-29T13:25:15.592Z,40.21
2019-04-29T13:30:16.426Z,40.30
2019-04-29T13:35:17.979Z,42.52
2019-04-29T13:40:19.452Z,40.62
2019-04-29T13:45:24.967Z,40.07
2019-04-29T13:50:38.785Z,39.99
2019-04-29T13:55:47.105Z,41.42
2019-04-29T14:00:30.806Z,40.01
2019-04-29T14:05:32.518Z,40.46
2019-04-29T14:10:35.376Z,39.94
2019-04-29T14:15:40.309Z,40.90
2019-04-29T14:20:40.319Z,41.77
2019-04-29T14:25:41.761Z,43.30
2019-04-29T14:30:43.742Z,42.00
2019-04-29T14:35:48.323Z,42.51
2019-04-29T14:40:51.003Z,43.25
2019-04-29T14:45:52.391Z,44.35
2019-04-29T14:50:54.426Z,42.63
2019-04-29T14:55:56.976Z,42.51
2019-04-29T15:00:58.731Z,43.06
2019-04-29T15:06:00.574Z,43.35
2019-04-29T15:11:04.174Z,43.72
2019-04-29T15:16:09.628Z,44.03
2019-04-29T15:21:09.382Z,44.82
2019-04-29T15:26:11.220Z,44.69
2019-04-29T15:31:14.054Z,44.78
2019-04-29T15:36:16.328Z,45.03
2019-04-29T15:41:17.990Z,46.33
2019-04-29T15:46:19.454Z,46.62
2019-04-29T15:51:20.994Z,46.81
2019-04-29T15:56:28.743Z,47.57
2019-04-29T16:01:28.257Z,47.51
2019-04-29T16:11:33.449Z,48.41
2019-04-29T16:16:34.061Z,48.87
2019-04-29T16:21:39.527Z,48.55
2019-04-29T16:26:39.267Z,48.33
2019-04-29T16:31:40.979Z,46.09
2019-04-29T16:36:43.684Z,44.17
2019-04-29T16:41:50.963Z,44.35
2019-04-29T16:46:49.322Z,44.16
2019-04-29T16:51:53.785Z,43.59
2019-04-29T16:56:55.138Z,44.67
2019-04-29T17:01:56.575Z,47.32
2019-04-29T17:07:11.901Z,48.13
2019-04-29T17:12:01.476Z,49.46
2019-04-29T17:17:02.751Z,50.37
2019-04-29T17:22:24.715Z,51.08
2019-04-29T17:27:07.688Z,51.39
2019-04-29T17:32:09.824Z,51.17
2019-04-29T17:37:12.192Z,51.26
2019-04-29T17:42:13.931Z,51.48
2019-04-29T17:47:15.629Z,52.14
2019-04-29T17:52:17.924Z,51.38
2019-04-29T17:57:28.336Z,52.86
2019-04-29T18:02:23.271Z,54.04
2019-04-29T18:07:25.357Z,54.71
2019-04-29T18:12:27.514Z,55.22
2019-04-29T18:17:31.167Z,56.33
2019-04-29T18:22:32.264Z,56.93
2019-04-29T18:27:35.044Z,57.58
2019-04-29T18:32:42.255Z,58.53
2019-04-29T18:37:41.021Z,59.29
2019-04-29T18:42:43.406Z,60.07
2019-04-29T18:47:45.676Z,60.35
2019-04-29T18:52:47.040Z,60.94
2019-04-29T18:57:48.518Z,62.00
2019-04-29T19:02:57.039Z,62.82
2019-04-29T19:07:57.037Z,62.90
2019-04-29T19:13:00.081Z,63.27
2019-04-29T19:18:02.006Z,63.97
2019-04-29T19:23:07.855Z,64.52
2019-04-29T19:28:15.012Z,65.37
2019-04-29T19:33:09.832Z,65.42
2019-04-29T19:38:13.434Z,66.06
2019-04-29T19:43:17.696Z,66.88
2019-04-29T19:48:17.769Z,67.19
2019-04-29T19:53:19.722Z,67.40
2019-04-29T19:58:28.328Z,67.19
2019-04-29T20:03:35.440Z,67.59
2019-04-29T20:08:50.173Z,67.75
2019-04-29T20:13:34.699Z,67.53
2019-04-29T20:18:40.411Z,67.68
2019-04-29T20:23:39.928Z,68.16
2019-04-29T20:28:41.848Z,68.88
2019-04-29T20:33:46.968Z,68.77
2019-04-29T20:38:47.063Z,69.15
2019-04-29T20:43:48.815Z,69.55
2019-04-29T20:48:54.595Z,69.37
2019-04-29T20:53:53.469Z,69.60
2019-04-29T20:58:55.333Z,69.73
2019-04-29T21:03:57.212Z,69.86
2019-04-29T21:08:58.595Z,70.61
2019-04-29T21:14:00.147Z,70.68
2019-04-29T21:19:01.588Z,70.94
2019-04-29T21:24:08.479Z,70.96
2019-04-29T21:29:06.445Z,71.03
2019-04-29T21:34:07.803Z,71.43
2019-04-29T21:39:09.093Z,71.67
2019-04-29T21:44:10.541Z,71.16
2019-04-29T21:49:12.769Z,71.41
2019-04-29T21:54:15.700Z,71.35
2019-04-29T21:59:17.211Z,71.54
2019-04-29T22:04:18.557Z,71.71
2019-04-29T22:09:20.024Z,71.38
2019-04-29T22:14:21.475Z,71.51
2019-04-29T22:19:24.626Z,71.31
2019-04-29T22:24:27.505Z,71.39
2019-04-29T22:29:37.339Z,71.48
2019-04-29T22:34:38.965Z,71.59
2019-04-29T22:39:40.333Z,71.52
2019-04-29T22:44:41.602Z,71.64
2019-04-29T22:49:42.973Z,71.38
2019-04-29T22:54:45.786Z,71.55
2019-04-29T22:59:49.468Z,71.60
2019-04-29T23:04:53.828Z,71.78
2019-04-29T23:09:55.496Z,71.84
2019-04-29T23:14:58.597Z,71.78
2019-04-29T23:20:00.278Z,71.92
2019-04-29T23:25:01.865Z,71.92
2019-04-29T23:30:04.675Z,72.22
2019-04-29T23:35:09.665Z,72.16
2019-04-29T23:40:09.776Z,71.92
2019-04-29T23:45:14.571Z,72.32
2019-04-29T23:50:18.599Z,72.24
2019-04-29T23:55:20.530Z,72.06
